sensor_id;sensor_type;location;lat;lon;timestamp;temperature;humidity
15288;DHT22;7745;48.708;9.026;2023-03-14T00:00:09;10.00;99.90
15288;DHT22;7745;48.708;9.026;2023-03-14T00:02:37;9.60;99.90
15288;DHT22;7745;48.708;9.026;2023-03-14T00:05:04;9.70;99.90
15288;DHT22;7745;48.708;9.026;2023-03-14T00:07:35;9.60;99.90
15288;DHT22;7745;48.708;9.026;2023-03-14T00:10:03;9.60;99.90
15288;DHT22;7745;48.708;9.026;2023-03-14T00:12:31;9.60;99.90
15288;DHT22;7745;48.708;9.026;2023-03-14T00:14:58;9.60;99.90
15288;DHT22;7745;48.708;9.026;2023-03-14T00:17:25;9.70;99.90
15288;DHT22;7745;48.708;9.026;2023-03-14T00:19:52;9.70;99.90
15288;DHT22;7745;48.708;9.026;2023-03-14T00:22:19;9.70;99.90
15288;DHT22;7745;48.708;9.026;2023-03-14T00:24:48;9.50;99.90
15288;DHT22;7745;48.708;9.026;2023-03-14T00:27:15;9.50;99.90
15288;DHT22;7745;48.708;9.026;2023-03-14T00:29:42;9.70;99.90
15288;DHT22;7745;48.708;9.026;2023-03-14T00:32:10;9.60;99.90
15288;DHT22;7745;48.708;9.026;2023-03-14T00:34:37;9.60;99.90
15288;DHT22;7745;48.708;9.026;2023-03-14T00:37:04;9.50;99.90
15288;DHT22;7745;48.708;9.026;2023-03-14T00:39:30;9.60;99.90
15288;DHT22;7745;48.708;9.026;2023-03-14T00:41:58;9.60;99.90
15288;DHT22;7745;48.708;9.026;2023-03-14T00:44:25;9.80;99.90
15288;DHT22;7745;48.708;9.026;2023-03-14T00:46:52;9.70;99.90
15288;DHT22;7745;48.708;9.026;2023-03-14T00:49:19;9.80;99.90
15288;DHT22;7745;48.708;9.026;2023-03-14T00:51:46;9.90;99.90
15288;DHT22;7745;48.708;9.026;2023-03-14T00:54:12;9.60;99.90
15288;DHT22;7745;48.708;9.026;2023-03-14T00:56:39;9.70;99.90
15288;DHT22;7745;48.708;9.026;2023-03-14T00:59:07;9.90;99.90
15288;DHT22;7745;48.708;9.026;2023-03-14T01:01:34;9.80;99.90
15288;DHT22;7745;48.708;9.026;2023-03-14T01:04:02;9.70;99.90
15288;DHT22;7745;48.708;9.026;2023-03-14T01:06:29;9.60;99.90
15288;DHT22;7745;48.708;9.026;2023-03-14T01:08:57;9.70;99.90
15288;DHT22;7745;48.708;9.026;2023-03-14T01:11:25;9.60;99.90
15288;DHT22;7745;48.708;9.026;2023-03-14T01:13:53;9.70;99.90
15288;DHT22;7745;48.708;9.026;2023-03-14T01:16:22;9.60;99.90
15288;DHT22;7745;48.708;9.026;2023-03-14T01:18:49;9.60;99.90
15288;DHT22;7745;48.708;9.026;2023-03-14T01:21:18;9.60;99.90
15288;DHT22;7745;48.708;9.026;2023-03-14T01:23:46;9.60;99.90
15288;DHT22;7745;48.708;9.026;2023-03-14T01:26:15;9.60;99.90
15288;DHT22;7745;48.708;9.026;2023-03-14T01:28:44;9.90;99.90
15288;DHT22;7745;48.708;9.026;2023-03-14T01:31:12;9.60;99.90
15288;DHT22;7745;48.708;9.026;2023-03-14T01:33:40;9.70;99.90
15288;DHT22;7745;48.708;9.026;2023-03-14T01:36:08;9.70;99.90
15288;DHT22;7745;48.708;9.026;2023-03-14T01:38:37;9.70;99.90
15288;DHT22;7745;48.708;9.026;2023-03-14T01:41:05;9.90;99.90
15288;DHT22;7745;48.708;9.026;2023-03-14T01:43:32;9.70;99.90
15288;DHT22;7745;48.708;9.026;2023-03-14T01:46:21;9.60;99.90
15288;DHT22;7745;48.708;9.026;2023-03-14T01:48:55;9.60;99.90
15288;DHT22;7745;48.708;9.026;2023-03-14T01:51:27;9.70;99.90
15288;DHT22;7745;48.708;9.026;2023-03-14T01:53:59;9.50;99.90
15288;DHT22;7745;48.708;9.026;2023-03-14T01:56:27;9.50;99.90
15288;DHT22;7745;48.708;9.026;2023-03-14T01:58:54;9.60;99.90
15288;DHT22;7745;48.708;9.026;2023-03-14T02:01:24;9.50;99.90
15288;DHT22;7745;48.708;9.026;2023-03-14T02:03:55;9.60;99.90
15288;DHT22;7745;48.708;9.026;2023-03-14T02:06:25;9.50;99.90
15288;DHT22;7745;48.708;9.026;2023-03-14T02:08:54;9.50;99.90
15288;DHT22;7745;48.708;9.026;2023-03-14T02:11:22;9.40;99.90
15288;DHT22;7745;48.708;9.026;2023-03-14T02:13:53;9.40;99.90
15288;DHT22;7745;48.708;9.026;2023-03-14T02:16:20;9.80;99.90
15288;DHT22;7745;48.708;9.026;2023-03-14T02:18:47;9.70;99.90
15288;DHT22;7745;48.708;9.026;2023-03-14T02:21:22;9.60;99.90
15288;DHT22;7745;48.708;9.026;2023-03-14T02:23:55;9.80;99.90
15288;DHT22;7745;48.708;9.026;2023-03-14T02:26:28;9.40;99.90
15288;DHT22;7745;48.708;9.026;2023-03-14T02:28:59;9.70;99.90
15288;DHT22;7745;48.708;9.026;2023-03-14T02:31:25;9.40;99.90
15288;DHT22;7745;48.708;9.026;2023-03-14T02:33:52;9.40;99.90
15288;DHT22;7745;48.708;9.026;2023-03-14T02:36:20;9.40;99.90
15288;DHT22;7745;48.708;9.026;2023-03-14T02:38:51;9.50;99.90
15288;DHT22;7745;48.708;9.026;2023-03-14T02:41:19;9.40;99.90
15288;DHT22;7745;48.708;9.026;2023-03-14T02:43:46;9.40;99.90
15288;DHT22;7745;48.708;9.026;2023-03-14T02:46:17;9.70;99.90
15288;DHT22;7745;48.708;9.026;2023-03-14T02:48:47;9.90;99.90
15288;DHT22;7745;48.708;9.026;2023-03-14T02:51:15;9.40;99.90
15288;DHT22;7745;48.708;9.026;2023-03-14T02:53:42;9.50;99.90
15288;DHT22;7745;48.708;9.026;2023-03-14T02:56:10;9.40;99.90
15288;DHT22;7745;48.708;9.026;2023-03-14T02:58:37;9.40;99.90
15288;DHT22;7745;48.708;9.026;2023-03-14T03:01:04;9.40;99.90
15288;DHT22;7745;48.708;9.026;2023-03-14T03:03:33;9.40;99.90
15288;DHT22;7745;48.708;9.026;2023-03-14T03:05:59;9.50;99.90
15288;DHT22;7745;48.708;9.026;2023-03-14T03:08:27;9.40;99.90
15288;DHT22;7745;48.708;9.026;2023-03-14T03:10:56;9.40;99.90
15288;DHT22;7745;48.708;9.026;2023-03-14T03:13:23;9.30;99.90
15288;DHT22;7745;48.708;9.026;2023-03-14T03:15:50;9.30;99.90
15288;DHT22;7745;48.708;9.026;2023-03-14T03:18:16;9.20;99.90
15288;DHT22;7745;48.708;9.026;2023-03-14T03:20:44;9.30;99.90
15288;DHT22;7745;48.708;9.026;2023-03-14T03:23:11;9.20;99.90
15288;DHT22;7745;48.708;9.026;2023-03-14T03:25:38;9.20;99.90
15288;DHT22;7745;48.708;9.026;2023-03-14T03:28:05;9.20;99.90
15288;DHT22;7745;48.708;9.026;2023-03-14T03:30:36;9.20;99.90
15288;DHT22;7745;48.708;9.026;2023-03-14T03:33:03;9.20;99.90
15288;DHT22;7745;48.708;9.026;2023-03-14T03:35:30;9.10;99.90
15288;DHT22;7745;48.708;9.026;2023-03-14T03:37:58;9.10;99.90
15288;DHT22;7745;48.708;9.026;2023-03-14T03:40:25;9.10;99.90
15288;DHT22;7745;48.708;9.026;2023-03-14T03:42:52;9.10;99.90
15288;DHT22;7745;48.708;9.026;2023-03-14T03:45:19;9.00;99.90
15288;DHT22;7745;48.708;9.026;2023-03-14T03:47:45;9.00;99.90
15288;DHT22;7745;48.708;9.026;2023-03-14T03:50:12;9.00;99.90
15288;DHT22;7745;48.708;9.026;2023-03-14T03:52:39;9.00;99.90
15288;DHT22;7745;48.708;9.026;2023-03-14T03:55:08;8.90;99.90
15288;DHT22;7745;48.708;9.026;2023-03-14T03:57:35;8.90;99.90
15288;DHT22;7745;48.708;9.026;2023-03-14T04:00:02;8.90;99.90
15288;DHT22;7745;48.708;9.026;2023-03-14T04:02:30;8.90;99.90
15288;DHT22;7745;48.708;9.026;2023-03-14T04:04:57;8.90;99.90
15288;DHT22;7745;48.708;9.026;2023-03-14T04:07:24;8.90;99.90
15288;DHT22;7745;48.708;9.026;2023-03-14T04:09:51;8.90;99.90
15288;DHT22;7745;48.708;9.026;2023-03-14T04:12:19;8.80;99.90
15288;DHT22;7745;48.708;9.026;2023-03-14T04:14:46;9.40;99.90
15288;DHT22;7745;48.708;9.026;2023-03-14T04:17:12;9.00;99.90
15288;DHT22;7745;48.708;9.026;2023-03-14T04:19:39;8.90;99.90
15288;DHT22;7745;48.708;9.026;2023-03-14T04:22:07;9.20;99.90
15288;DHT22;7745;48.708;9.026;2023-03-14T04:24:34;8.80;99.90
15288;DHT22;7745;48.708;9.026;2023-03-14T04:27:01;8.90;99.90
15288;DHT22;7745;48.708;9.026;2023-03-14T04:29:29;8.90;99.90
15288;DHT22;7745;48.708;9.026;2023-03-14T04:31:56;8.80;99.90
15288;DHT22;7745;48.708;9.026;2023-03-14T04:34:22;8.80;99.90
15288;DHT22;7745;48.708;9.026;2023-03-14T04:36:49;8.90;99.90
15288;DHT22;7745;48.708;9.026;2023-03-14T04:39:16;8.90;99.90
15288;DHT22;7745;48.708;9.026;2023-03-14T04:41:44;8.60;99.90
15288;DHT22;7745;48.708;9.026;2023-03-14T04:44:11;8.90;99.90
15288;DHT22;7745;48.708;9.026;2023-03-14T04:46:39;8.90;99.90
15288;DHT22;7745;48.708;9.026;2023-03-14T04:49:06;8.90;99.90
15288;DHT22;7745;48.708;9.026;2023-03-14T04:51:33;8.90;99.90
15288;DHT22;7745;48.708;9.026;2023-03-14T04:54:00;8.80;99.90
15288;DHT22;7745;48.708;9.026;2023-03-14T04:56:26;8.80;99.90
15288;DHT22;7745;48.708;9.026;2023-03-14T04:58:54;8.80;99.90
15288;DHT22;7745;48.708;9.026;2023-03-14T05:01:20;8.80;99.90
15288;DHT22;7745;48.708;9.026;2023-03-14T05:03:48;8.80;99.90
15288;DHT22;7745;48.708;9.026;2023-03-14T05:06:15;8.90;99.90
15288;DHT22;7745;48.708;9.026;2023-03-14T05:08:42;8.70;99.90
15288;DHT22;7745;48.708;9.026;2023-03-14T05:11:10;8.70;99.90
15288;DHT22;7745;48.708;9.026;2023-03-14T05:13:39;8.70;99.90
15288;DHT22;7745;48.708;9.026;2023-03-14T05:16:09;8.70;99.90
15288;DHT22;7745;48.708;9.026;2023-03-14T05:18:37;8.70;99.90
15288;DHT22;7745;48.708;9.026;2023-03-14T05:21:05;8.70;99.90
15288;DHT22;7745;48.708;9.026;2023-03-14T05:23:32;8.70;99.90
15288;DHT22;7745;48.708;9.026;2023-03-14T05:25:59;9.20;99.90
15288;DHT22;7745;48.708;9.026;2023-03-14T05:28:26;8.70;99.90
15288;DHT22;7745;48.708;9.026;2023-03-14T05:30:53;8.80;99.90
15288;DHT22;7745;48.708;9.026;2023-03-14T05:33:20;8.80;99.90
15288;DHT22;7745;48.708;9.026;2023-03-14T05:35:47;8.80;99.90
15288;DHT22;7745;48.708;9.026;2023-03-14T05:38:15;8.90;99.90
15288;DHT22;7745;48.708;9.026;2023-03-14T05:40:42;8.80;99.90
15288;DHT22;7745;48.708;9.026;2023-03-14T05:43:08;8.80;99.90
15288;DHT22;7745;48.708;9.026;2023-03-14T05:45:35;8.80;99.90
15288;DHT22;7745;48.708;9.026;2023-03-14T05:48:02;8.70;99.90
15288;DHT22;7745;48.708;9.026;2023-03-14T05:50:29;8.70;99.90
15288;DHT22;7745;48.708;9.026;2023-03-14T05:52:56;8.80;99.90
15288;DHT22;7745;48.708;9.026;2023-03-14T05:55:24;8.70;99.90
15288;DHT22;7745;48.708;9.026;2023-03-14T05:57:51;9.10;99.90
15288;DHT22;7745;48.708;9.026;2023-03-14T06:00:19;8.80;99.90
15288;DHT22;7745;48.708;9.026;2023-03-14T06:02:46;8.70;99.90
15288;DHT22;7745;48.708;9.026;2023-03-14T06:05:13;8.80;99.90
15288;DHT22;7745;48.708;9.026;2023-03-14T06:07:40;9.00;99.90
15288;DHT22;7745;48.708;9.026;2023-03-14T06:10:07;8.80;99.90
15288;DHT22;7745;48.708;9.026;2023-03-14T06:12:36;8.80;99.90
15288;DHT22;7745;48.708;9.026;2023-03-14T06:15:03;8.80;99.90
15288;DHT22;7745;48.708;9.026;2023-03-14T06:17:30;8.80;99.90
15288;DHT22;7745;48.708;9.026;2023-03-14T06:19:56;9.10;99.90
15288;DHT22;7745;48.708;9.026;2023-03-14T06:22:23;8.80;99.90
15288;DHT22;7745;48.708;9.026;2023-03-14T06:24:50;8.80;99.90
15288;DHT22;7745;48.708;9.026;2023-03-14T06:27:17;9.00;99.90
15288;DHT22;7745;48.708;9.026;2023-03-14T06:29:45;8.90;99.90
15288;DHT22;7745;48.708;9.026;2023-03-14T06:32:11;8.80;99.90
15288;DHT22;7745;48.708;9.026;2023-03-14T06:34:38;8.80;99.90
15288;DHT22;7745;48.708;9.026;2023-03-14T06:37:06;8.90;99.90
15288;DHT22;7745;48.708;9.026;2023-03-14T06:39:33;9.20;99.90
15288;DHT22;7745;48.708;9.026;2023-03-14T06:42:00;8.90;99.90
15288;DHT22;7745;48.708;9.026;2023-03-14T06:44:26;9.30;99.90
15288;DHT22;7745;48.708;9.026;2023-03-14T06:46:55;9.20;99.90
15288;DHT22;7745;48.708;9.026;2023-03-14T06:49:21;9.10;99.90
15288;DHT22;7745;48.708;9.026;2023-03-14T06:51:48;9.30;99.90
15288;DHT22;7745;48.708;9.026;2023-03-14T06:54:15;9.30;99.90
15288;DHT22;7745;48.708;9.026;2023-03-14T06:56:42;9.20;99.90
15288;DHT22;7745;48.708;9.026;2023-03-14T06:59:08;9.30;99.90
15288;DHT22;7745;48.708;9.026;2023-03-14T07:01:36;9.50;99.90
15288;DHT22;7745;48.708;9.026;2023-03-14T07:04:04;9.30;99.90
15288;DHT22;7745;48.708;9.026;2023-03-14T07:06:31;9.40;99.90
15288;DHT22;7745;48.708;9.026;2023-03-14T07:08:58;9.50;99.90
15288;DHT22;7745;48.708;9.026;2023-03-14T07:11:25;9.60;99.90
15288;DHT22;7745;48.708;9.026;2023-03-14T07:13:52;9.60;99.90
15288;DHT22;7745;48.708;9.026;2023-03-14T07:16:19;9.90;99.90
15288;DHT22;7745;48.708;9.026;2023-03-14T07:18:46;9.70;99.90
15288;DHT22;7745;48.708;9.026;2023-03-14T07:21:16;9.80;99.90
15288;DHT22;7745;48.708;9.026;2023-03-14T07:23:42;9.70;99.90
15288;DHT22;7745;48.708;9.026;2023-03-14T07:26:09;10.00;99.90
15288;DHT22;7745;48.708;9.026;2023-03-14T07:28:36;9.90;99.90
15288;DHT22;7745;48.708;9.026;2023-03-14T07:31:03;10.30;99.90
15288;DHT22;7745;48.708;9.026;2023-03-14T07:33:30;10.10;99.90
15288;DHT22;7745;48.708;9.026;2023-03-14T07:35:57;10.20;99.90
15288;DHT22;7745;48.708;9.026;2023-03-14T07:38:25;10.20;99.90
15288;DHT22;7745;48.708;9.026;2023-03-14T07:40:58;10.30;99.90
15288;DHT22;7745;48.708;9.026;2023-03-14T07:43:25;10.50;99.90
15288;DHT22;7745;48.708;9.026;2023-03-14T07:45:51;10.40;99.90
15288;DHT22;7745;48.708;9.026;2023-03-14T07:48:19;10.70;99.90
15288;DHT22;7745;48.708;9.026;2023-03-14T07:50:48;10.60;99.90
15288;DHT22;7745;48.708;9.026;2023-03-14T07:53:15;10.60;99.90
15288;DHT22;7745;48.708;9.026;2023-03-14T07:55:43;10.60;99.90
15288;DHT22;7745;48.708;9.026;2023-03-14T07:58:11;10.70;99.90
15288;DHT22;7745;48.708;9.026;2023-03-14T08:00:38;10.80;99.90
15288;DHT22;7745;48.708;9.026;2023-03-14T08:03:05;10.80;99.90
15288;DHT22;7745;48.708;9.026;2023-03-14T08:05:34;10.90;99.90
15288;DHT22;7745;48.708;9.026;2023-03-14T08:08:01;10.90;99.90
15288;DHT22;7745;48.708;9.026;2023-03-14T08:10:28;11.10;99.90
15288;DHT22;7745;48.708;9.026;2023-03-14T08:12:59;11.10;99.90
15288;DHT22;7745;48.708;9.026;2023-03-14T08:15:28;11.20;99.90
15288;DHT22;7745;48.708;9.026;2023-03-14T08:17:55;11.10;99.90
15288;DHT22;7745;48.708;9.026;2023-03-14T08:20:23;11.10;99.90
15288;DHT22;7745;48.708;9.026;2023-03-14T08:22:50;11.10;99.90
15288;DHT22;7745;48.708;9.026;2023-03-14T08:25:17;11.20;99.90
15288;DHT22;7745;48.708;9.026;2023-03-14T08:27:44;11.30;99.90
15288;DHT22;7745;48.708;9.026;2023-03-14T08:30:14;11.50;99.90
15288;DHT22;7745;48.708;9.026;2023-03-14T08:32:41;11.60;99.90
15288;DHT22;7745;48.708;9.026;2023-03-14T08:35:09;11.60;99.90
15288;DHT22;7745;48.708;9.026;2023-03-14T08:37:36;11.60;99.90
15288;DHT22;7745;48.708;9.026;2023-03-14T08:40:04;11.60;99.90
15288;DHT22;7745;48.708;9.026;2023-03-14T08:42:31;11.50;99.90
15288;DHT22;7745;48.708;9.026;2023-03-14T08:44:58;11.40;99.90
15288;DHT22;7745;48.708;9.026;2023-03-14T08:47:27;11.30;99.90
15288;DHT22;7745;48.708;9.026;2023-03-14T08:49:54;11.30;99.90
15288;DHT22;7745;48.708;9.026;2023-03-14T08:52:21;11.20;99.90
15288;DHT22;7745;48.708;9.026;2023-03-14T08:54:48;11.30;99.90
15288;DHT22;7745;48.708;9.026;2023-03-14T08:57:15;11.30;99.90
15288;DHT22;7745;48.708;9.026;2023-03-14T08:59:41;11.40;99.90
15288;DHT22;7745;48.708;9.026;2023-03-14T09:02:09;11.30;99.90
15288;DHT22;7745;48.708;9.026;2023-03-14T09:04:38;11.20;99.90
15288;DHT22;7745;48.708;9.026;2023-03-14T09:07:05;11.20;99.90
15288;DHT22;7745;48.708;9.026;2023-03-14T09:09:32;11.30;99.90
15288;DHT22;7745;48.708;9.026;2023-03-14T09:11:59;11.20;99.90
15288;DHT22;7745;48.708;9.026;2023-03-14T09:14:25;11.00;99.90
15288;DHT22;7745;48.708;9.026;2023-03-14T09:16:52;11.00;99.90
15288;DHT22;7745;48.708;9.026;2023-03-14T09:19:19;11.00;99.90
15288;DHT22;7745;48.708;9.026;2023-03-14T09:21:47;11.10;99.90
15288;DHT22;7745;48.708;9.026;2023-03-14T09:24:14;11.20;99.90
15288;DHT22;7745;48.708;9.026;2023-03-14T09:26:41;11.20;99.90
15288;DHT22;7745;48.708;9.026;2023-03-14T09:29:07;11.30;99.90
15288;DHT22;7745;48.708;9.026;2023-03-14T09:31:34;11.20;99.90
15288;DHT22;7745;48.708;9.026;2023-03-14T09:34:01;11.20;99.90
15288;DHT22;7745;48.708;9.026;2023-03-14T09:36:28;11.30;99.90
15288;DHT22;7745;48.708;9.026;2023-03-14T09:38:56;11.30;99.90
15288;DHT22;7745;48.708;9.026;2023-03-14T09:41:25;11.30;99.90
15288;DHT22;7745;48.708;9.026;2023-03-14T09:44:00;11.40;99.90
15288;DHT22;7745;48.708;9.026;2023-03-14T09:46:29;11.60;99.90
15288;DHT22;7745;48.708;9.026;2023-03-14T09:48:57;11.40;99.90
15288;DHT22;7745;48.708;9.026;2023-03-14T09:51:24;11.40;99.90
15288;DHT22;7745;48.708;9.026;2023-03-14T09:53:52;11.30;99.90
15288;DHT22;7745;48.708;9.026;2023-03-14T09:56:22;11.30;99.90
15288;DHT22;7745;48.708;9.026;2023-03-14T09:58:53;11.30;99.90
15288;DHT22;7745;48.708;9.026;2023-03-14T10:01:24;11.40;99.90
15288;DHT22;7745;48.708;9.026;2023-03-14T10:03:55;11.40;99.90
15288;DHT22;7745;48.708;9.026;2023-03-14T10:06:24;11.60;99.90
15288;DHT22;7745;48.708;9.026;2023-03-14T10:08:52;11.70;99.90
15288;DHT22;7745;48.708;9.026;2023-03-14T10:11:24;12.00;99.90
15288;DHT22;7745;48.708;9.026;2023-03-14T10:14:05;12.30;99.90
15288;DHT22;7745;48.708;9.026;2023-03-14T10:16:34;12.50;99.90
15288;DHT22;7745;48.708;9.026;2023-03-14T10:19:05;12.50;99.90
15288;DHT22;7745;48.708;9.026;2023-03-14T10:21:36;12.50;99.90
15288;DHT22;7745;48.708;9.026;2023-03-14T10:24:21;12.50;99.90
15288;DHT22;7745;48.708;9.026;2023-03-14T10:26:52;12.30;99.90
15288;DHT22;7745;48.708;9.026;2023-03-14T10:29:20;12.30;99.90
15288;DHT22;7745;48.708;9.026;2023-03-14T10:31:51;12.20;99.90
15288;DHT22;7745;48.708;9.026;2023-03-14T10:34:23;12.20;99.90
15288;DHT22;7745;48.708;9.026;2023-03-14T10:36:55;12.20;99.90
15288;DHT22;7745;48.708;9.026;2023-03-14T10:39:30;12.10;99.90
15288;DHT22;7745;48.708;9.026;2023-03-14T10:42:06;12.00;99.90
15288;DHT22;7745;48.708;9.026;2023-03-14T10:44:39;12.00;99.90
15288;DHT22;7745;48.708;9.026;2023-03-14T10:47:06;11.90;99.90
15288;DHT22;7745;48.708;9.026;2023-03-14T10:49:39;12.20;99.90
15288;DHT22;7745;48.708;9.026;2023-03-14T10:52:20;11.70;99.90
15288;DHT22;7745;48.708;9.026;2023-03-14T10:54:50;11.60;99.90
15288;DHT22;7745;48.708;9.026;2023-03-14T10:57:21;11.50;99.90
15288;DHT22;7745;48.708;9.026;2023-03-14T10:59:48;11.50;99.90
15288;DHT22;7745;48.708;9.026;2023-03-14T11:02:30;11.40;99.90
15288;DHT22;7745;48.708;9.026;2023-03-14T11:05:08;11.40;99.90
15288;DHT22;7745;48.708;9.026;2023-03-14T11:07:39;11.40;99.90
15288;DHT22;7745;48.708;9.026;2023-03-14T11:10:14;11.50;99.90
15288;DHT22;7745;48.708;9.026;2023-03-14T11:12:53;11.20;99.90
15288;DHT22;7745;48.708;9.026;2023-03-14T11:15:25;11.20;99.90
15288;DHT22;7745;48.708;9.026;2023-03-14T11:18:12;11.20;99.90
15288;DHT22;7745;48.708;9.026;2023-03-14T11:20:45;11.00;99.90
15288;DHT22;7745;48.708;9.026;2023-03-14T11:23:19;10.90;99.90
15288;DHT22;7745;48.708;9.026;2023-03-14T11:25:54;11.10;99.90
15288;DHT22;7745;48.708;9.026;2023-03-14T11:28:29;10.90;99.90
15288;DHT22;7745;48.708;9.026;2023-03-14T11:31:04;10.90;99.90
15288;DHT22;7745;48.708;9.026;2023-03-14T11:33:37;10.90;99.90
15288;DHT22;7745;48.708;9.026;2023-03-14T11:36:07;10.80;99.90
15288;DHT22;7745;48.708;9.026;2023-03-14T11:38:37;10.90;99.90
15288;DHT22;7745;48.708;9.026;2023-03-14T11:41:10;11.10;99.90
15288;DHT22;7745;48.708;9.026;2023-03-14T11:43:47;11.20;99.90
15288;DHT22;7745;48.708;9.026;2023-03-14T11:46:17;11.00;99.90
15288;DHT22;7745;48.708;9.026;2023-03-14T11:48:50;11.10;99.90
15288;DHT22;7745;48.708;9.026;2023-03-14T11:51:23;11.20;99.90
15288;DHT22;7745;48.708;9.026;2023-03-14T11:53:55;11.00;99.90
15288;DHT22;7745;48.708;9.026;2023-03-14T11:56:28;11.00;99.90
15288;DHT22;7745;48.708;9.026;2023-03-14T11:59:03;11.10;99.90
15288;DHT22;7745;48.708;9.026;2023-03-14T12:01:44;11.00;99.90
15288;DHT22;7745;48.708;9.026;2023-03-14T12:04:18;11.00;99.90
15288;DHT22;7745;48.708;9.026;2023-03-14T12:06:48;10.80;99.90
15288;DHT22;7745;48.708;9.026;2023-03-14T12:09:16;10.60;99.90
15288;DHT22;7745;48.708;9.026;2023-03-14T12:11:48;10.80;99.90
15288;DHT22;7745;48.708;9.026;2023-03-14T12:14:22;10.50;99.90
15288;DHT22;7745;48.708;9.026;2023-03-14T12:16:53;10.50;99.90
15288;DHT22;7745;48.708;9.026;2023-03-14T12:19:37;10.60;99.90
15288;DHT22;7745;48.708;9.026;2023-03-14T12:22:21;10.70;99.90
15288;DHT22;7745;48.708;9.026;2023-03-14T12:24:51;10.80;99.90
15288;DHT22;7745;48.708;9.026;2023-03-14T12:27:49;10.70;99.90
15288;DHT22;7745;48.708;9.026;2023-03-14T12:30:24;10.70;99.90
15288;DHT22;7745;48.708;9.026;2023-03-14T12:35:58;10.80;99.90
15288;DHT22;7745;48.708;9.026;2023-03-14T12:38:32;10.80;99.90
15288;DHT22;7745;48.708;9.026;2023-03-14T12:41:14;10.70;99.90
15288;DHT22;7745;48.708;9.026;2023-03-14T12:43:41;10.60;99.90
15288;DHT22;7745;48.708;9.026;2023-03-14T12:46:19;10.30;99.90
15288;DHT22;7745;48.708;9.026;2023-03-14T12:48:47;10.20;99.90
15288;DHT22;7745;48.708;9.026;2023-03-14T12:51:17;9.90;99.90
15288;DHT22;7745;48.708;9.026;2023-03-14T12:54:02;9.70;99.90
15288;DHT22;7745;48.708;9.026;2023-03-14T12:59:33;9.70;99.90
15288;DHT22;7745;48.708;9.026;2023-03-14T13:02:14;10.00;99.90
15288;DHT22;7745;48.708;9.026;2023-03-14T13:04:47;9.90;99.90
15288;DHT22;7745;48.708;9.026;2023-03-14T13:07:30;9.80;99.90
15288;DHT22;7745;48.708;9.026;2023-03-14T13:10:02;10.00;99.90
15288;DHT22;7745;48.708;9.026;2023-03-14T13:12:37;10.00;99.90
15288;DHT22;7745;48.708;9.026;2023-03-14T13:15:14;10.00;99.90
15288;DHT22;7745;48.708;9.026;2023-03-14T13:17:46;9.80;99.90
15288;DHT22;7745;48.708;9.026;2023-03-14T13:20:18;9.70;99.90
15288;DHT22;7745;48.708;9.026;2023-03-14T13:22:47;9.60;99.90
15288;DHT22;7745;48.708;9.026;2023-03-14T13:25:14;9.70;99.90
15288;DHT22;7745;48.708;9.026;2023-03-14T13:27:43;9.80;99.90
15288;DHT22;7745;48.708;9.026;2023-03-14T13:30:19;9.70;99.90
15288;DHT22;7745;48.708;9.026;2023-03-14T13:32:48;9.60;99.90
15288;DHT22;7745;48.708;9.026;2023-03-14T13:35:17;9.70;99.90
15288;DHT22;7745;48.708;9.026;2023-03-14T13:37:44;9.60;99.90
15288;DHT22;7745;48.708;9.026;2023-03-14T13:40:20;9.50;99.90
15288;DHT22;7745;48.708;9.026;2023-03-14T13:42:47;9.30;99.90
15288;DHT22;7745;48.708;9.026;2023-03-14T13:45:14;9.30;99.90
15288;DHT22;7745;48.708;9.026;2023-03-14T13:47:41;9.20;99.90
15288;DHT22;7745;48.708;9.026;2023-03-14T13:50:18;9.30;99.90
15288;DHT22;7745;48.708;9.026;2023-03-14T13:52:45;9.30;99.90
15288;DHT22;7745;48.708;9.026;2023-03-14T13:55:15;9.30;99.90
15288;DHT22;7745;48.708;9.026;2023-03-14T13:57:44;9.40;99.90
15288;DHT22;7745;48.708;9.026;2023-03-14T14:00:18;9.50;99.90
15288;DHT22;7745;48.708;9.026;2023-03-14T14:02:46;9.50;99.90
15288;DHT22;7745;48.708;9.026;2023-03-14T14:05:14;9.40;99.90
15288;DHT22;7745;48.708;9.026;2023-03-14T14:07:44;9.30;99.90
15288;DHT22;7745;48.708;9.026;2023-03-14T14:10:12;9.50;99.90
15288;DHT22;7745;48.708;9.026;2023-03-14T14:12:41;9.30;99.90
15288;DHT22;7745;48.708;9.026;2023-03-14T14:15:13;9.50;99.90
15288;DHT22;7745;48.708;9.026;2023-03-14T14:17:43;9.10;99.90
15288;DHT22;7745;48.708;9.026;2023-03-14T14:20:16;9.10;99.90
15288;DHT22;7745;48.708;9.026;2023-03-14T14:22:47;9.00;99.90
15288;DHT22;7745;48.708;9.026;2023-03-14T14:25:15;9.00;99.90
15288;DHT22;7745;48.708;9.026;2023-03-14T14:27:44;9.00;99.90
15288;DHT22;7745;48.708;9.026;2023-03-14T14:30:28;8.90;99.90
15288;DHT22;7745;48.708;9.026;2023-03-14T14:33:12;8.80;99.90
15288;DHT22;7745;48.708;9.026;2023-03-14T14:35:50;8.80;99.90
15288;DHT22;7745;48.708;9.026;2023-03-14T14:38:19;8.90;99.90
15288;DHT22;7745;48.708;9.026;2023-03-14T14:40:49;9.50;99.90
15288;DHT22;7745;48.708;9.026;2023-03-14T14:43:20;9.10;99.90
15288;DHT22;7745;48.708;9.026;2023-03-14T14:45:49;8.90;99.90
15288;DHT22;7745;48.708;9.026;2023-03-14T14:48:20;9.30;99.90
15288;DHT22;7745;48.708;9.026;2023-03-14T14:50:55;8.90;99.90
15288;DHT22;7745;48.708;9.026;2023-03-14T14:53:28;8.90;99.90
15288;DHT22;7745;48.708;9.026;2023-03-14T14:55:57;8.80;99.90
15288;DHT22;7745;48.708;9.026;2023-03-14T14:58:27;8.70;99.90
15288;DHT22;7745;48.708;9.026;2023-03-14T15:00:57;8.80;99.90
15288;DHT22;7745;48.708;9.026;2023-03-14T15:03:27;8.90;99.90
15288;DHT22;7745;48.708;9.026;2023-03-14T15:05:55;9.00;99.90
15288;DHT22;7745;48.708;9.026;2023-03-14T15:08:23;9.40;99.90
15288;DHT22;7745;48.708;9.026;2023-03-14T15:10:51;9.30;99.90
15288;DHT22;7745;48.708;9.026;2023-03-14T15:13:18;9.80;99.90
15288;DHT22;7745;48.708;9.026;2023-03-14T15:15:45;9.60;99.90
15288;DHT22;7745;48.708;9.026;2023-03-14T15:18:14;9.40;99.90
15288;DHT22;7745;48.708;9.026;2023-03-14T15:20:41;9.60;99.90
15288;DHT22;7745;48.708;9.026;2023-03-14T15:23:10;9.50;99.90
15288;DHT22;7745;48.708;9.026;2023-03-14T15:25:39;9.60;99.90
15288;DHT22;7745;48.708;9.026;2023-03-14T15:28:13;9.60;99.90
15288;DHT22;7745;48.708;9.026;2023-03-14T15:30:40;9.50;99.90
15288;DHT22;7745;48.708;9.026;2023-03-14T15:33:07;9.30;99.90
15288;DHT22;7745;48.708;9.026;2023-03-14T15:35:34;9.30;99.90
15288;DHT22;7745;48.708;9.026;2023-03-14T15:38:01;9.10;99.90
15288;DHT22;7745;48.708;9.026;2023-03-14T15:40:28;9.20;99.90
15288;DHT22;7745;48.708;9.026;2023-03-14T15:42:57;9.00;99.90
15288;DHT22;7745;48.708;9.026;2023-03-14T15:45:24;9.10;99.90
15288;DHT22;7745;48.708;9.026;2023-03-14T15:47:50;8.90;99.90
15288;DHT22;7745;48.708;9.026;2023-03-14T15:50:17;8.80;99.90
15288;DHT22;7745;48.708;9.026;2023-03-14T15:52:44;8.80;99.90
15288;DHT22;7745;48.708;9.026;2023-03-14T15:55:11;9.00;99.90
15288;DHT22;7745;48.708;9.026;2023-03-14T15:57:40;8.60;99.90
15288;DHT22;7745;48.708;9.026;2023-03-14T16:00:10;8.50;99.90
15288;DHT22;7745;48.708;9.026;2023-03-14T16:02:39;8.40;99.90
15288;DHT22;7745;48.708;9.026;2023-03-14T16:05:08;8.30;99.90
15288;DHT22;7745;48.708;9.026;2023-03-14T16:07:35;8.30;99.90
15288;DHT22;7745;48.708;9.026;2023-03-14T16:10:03;8.30;99.90
15288;DHT22;7745;48.708;9.026;2023-03-14T16:12:30;8.40;99.90
15288;DHT22;7745;48.708;9.026;2023-03-14T16:14:57;8.50;99.90